createdAt,value
2023-02-04T03:59:11.660Z,47.61
2023-02-04T04:00:09.727Z,47.51
2023-02-04T04:01:11.642Z,47.51
2023-02-04T04:02:09.722Z,47.51
2023-02-04T04:03:11.703Z,47.61
2023-02-04T04:04:09.702Z,47.70
2023-02-04T04:05:11.640Z,47.61
2023-02-04T04:06:11.670Z,47.70
2023-02-04T04:07:11.641Z,47.82
2023-02-04T04:08:10.669Z,47.70
2023-02-04T04:09:11.638Z,47.92
2023-02-04T04:10:09.693Z,47.92
2023-02-04T04:11:11.158Z,47.92
2023-02-04T04:12:11.131Z,48.11
2023-02-04T04:13:11.135Z,48.02
2023-02-04T04:14:11.145Z,48.11
2023-02-04T04:15:11.180Z,48.11
2023-02-04T04:16:11.193Z,48.11
2023-02-04T04:17:11.133Z,48.11
2023-02-04T04:18:10.647Z,48.02
2023-02-04T04:19:09.611Z,48.21
2023-02-04T04:20:09.611Z,48.11
2023-02-04T04:21:09.600Z,48.21
2023-02-04T04:22:11.157Z,48.11
2023-02-04T04:23:09.583Z,48.21
2023-02-04T04:24:09.583Z,48.21
2023-02-04T04:25:11.153Z,48.21
2023-02-04T04:26:09.563Z,47.92
2023-02-04T04:27:09.567Z,48.21
2023-02-04T04:28:09.599Z,48.21
2023-02-04T04:29:09.589Z,48.21
2023-02-04T04:30:11.182Z,48.21
2023-02-04T04:31:11.274Z,48.11
2023-02-04T04:32:11.162Z,48.30
2023-02-04T04:33:11.175Z,48.11
2023-02-04T04:34:09.538Z,48.21
2023-02-04T04:35:11.147Z,48.30
2023-02-04T04:36:11.164Z,48.11
2023-02-04T04:37:09.512Z,48.21
2023-02-04T04:38:11.164Z,48.11
2023-02-04T04:39:11.151Z,48.02
2023-02-04T04:40:11.150Z,48.11
2023-02-04T04:41:11.159Z,48.23
2023-02-04T04:42:09.498Z,48.13
2023-02-04T04:43:11.173Z,48.11
2023-02-04T04:44:11.164Z,48.03
2023-02-04T04:45:11.170Z,48.23
2023-02-04T04:46:11.150Z,48.11
2023-02-04T04:47:11.176Z,48.02
2023-02-04T04:48:09.478Z,48.13
2023-02-04T04:49:09.471Z,47.94
2023-02-04T04:50:11.166Z,48.13
2023-02-04T04:51:09.444Z,48.03
2023-02-04T04:52:09.444Z,48.13
2023-02-04T04:53:09.434Z,48.03
2023-02-04T04:54:11.176Z,48.13
2023-02-04T04:55:11.189Z,48.13
2023-02-04T04:56:09.417Z,48.13
2023-02-04T04:57:09.416Z,48.13
2023-02-04T04:58:09.418Z,48.13
2023-02-04T04:59:11.176Z,47.85
2023-02-04T05:00:10.669Z,47.75
2023-02-04T05:01:11.208Z,48.03
2023-02-04T05:02:11.166Z,47.85
2023-02-04T05:03:11.175Z,47.75
2023-02-04T05:04:11.185Z,47.75
2023-02-04T05:05:11.265Z,48.03
2023-02-04T05:06:11.176Z,47.94
2023-02-04T05:07:11.170Z,47.94
2023-02-04T05:08:11.175Z,47.94
2023-02-04T05:09:11.199Z,47.75
2023-02-04T05:10:11.188Z,47.85
2023-02-04T05:11:11.200Z,47.75
2023-02-04T05:12:11.210Z,47.75
2023-02-04T05:13:11.199Z,47.75
2023-02-04T05:14:11.222Z,47.85
2023-02-04T05:15:11.174Z,47.85
2023-02-04T05:16:11.263Z,47.75
2023-02-04T05:17:11.208Z,47.75
2023-02-04T05:18:09.354Z,47.75
2023-02-04T05:19:09.344Z,47.85
2023-02-04T05:20:09.325Z,47.65
2023-02-04T05:21:11.203Z,47.56
2023-02-04T05:22:09.367Z,47.75
2023-02-04T05:23:09.315Z,47.75
2023-02-04T05:24:09.307Z,47.75
2023-02-04T05:25:09.314Z,47.65
2023-02-04T05:26:13.634Z,47.56
2023-02-04T05:27:09.319Z,47.56
2023-02-04T05:28:10.780Z,47.75
2023-02-04T05:29:10.662Z,47.65
2023-02-04T05:30:09.308Z,47.65
2023-02-04T05:31:11.379Z,47.65
2023-02-04T05:32:09.275Z,47.65
2023-02-04T05:33:11.255Z,47.65
2023-02-04T05:34:10.319Z,47.65
2023-02-04T05:35:09.273Z,47.65
2023-02-04T05:36:11.204Z,47.36
2023-02-04T05:37:09.257Z,47.46
2023-02-04T05:38:11.214Z,47.46
2023-02-04T05:39:10.744Z,47.46
2023-02-04T05:40:09.227Z,47.56
2023-02-04T05:41:11.212Z,47.65
2023-02-04T05:42:09.225Z,47.46
2023-02-04T05:43:11.226Z,47.46
2023-02-04T05:44:10.211Z,47.56
2023-02-04T05:45:10.711Z,47.46
2023-02-04T05:46:10.789Z,47.46
2023-02-04T05:47:10.712Z,47.46
2023-02-04T05:48:10.722Z,47.36
2023-02-04T05:49:10.203Z,47.46
2023-02-04T05:50:09.188Z,47.56
2023-02-04T05:51:10.727Z,47.46
2023-02-04T05:52:10.744Z,47.46
2023-02-04T05:53:10.189Z,47.36
2023-02-04T05:54:09.166Z,47.46
2023-02-04T05:55:09.171Z,47.27
2023-02-04T05:56:10.783Z,47.27
2023-02-04T05:57:09.222Z,47.46
2023-02-04T05:58:09.165Z,47.36
2023-02-04T05:59:09.160Z,47.46
2023-02-04T06:00:09.148Z,47.46
2023-02-04T06:01:10.741Z,47.36
2023-02-04T06:02:10.129Z,47.36
2023-02-04T06:03:10.806Z,47.46
2023-02-04T06:04:10.775Z,47.46
2023-02-04T06:05:10.740Z,47.27
2023-02-04T06:06:10.765Z,47.27
2023-02-04T06:07:10.752Z,47.27
2023-02-04T06:08:10.728Z,47.46
2023-02-04T06:09:10.850Z,47.27
2023-02-04T06:10:10.741Z,47.27
2023-02-04T06:11:10.755Z,47.36
2023-02-04T06:12:10.745Z,47.36
2023-02-04T06:13:10.764Z,47.27
2023-02-04T06:14:10.829Z,47.27
2023-02-04T06:15:10.761Z,47.36
2023-02-04T06:16:10.786Z,47.27
2023-02-04T06:17:10.739Z,47.17
2023-02-04T06:18:10.246Z,47.17
2023-02-04T06:19:10.748Z,47.17
2023-02-04T06:20:10.773Z,47.27
2023-02-04T06:21:09.084Z,47.17
2023-02-04T06:22:09.058Z,47.08
2023-02-04T06:23:09.076Z,46.98
2023-02-04T06:24:09.029Z,46.98
2023-02-04T06:25:10.755Z,47.08
2023-02-04T06:26:10.743Z,47.27
2023-02-04T06:27:09.058Z,46.88
2023-02-04T06:28:09.115Z,47.27
2023-02-04T06:29:09.030Z,47.17
2023-02-04T06:30:10.763Z,47.08
2023-02-04T06:31:09.195Z,47.08
2023-02-04T06:32:10.752Z,47.17
2023-02-04T06:33:08.993Z,47.08
2023-02-04T06:34:08.995Z,46.88
2023-02-04T06:35:10.779Z,46.88
2023-02-04T06:36:10.746Z,47.17
2023-02-04T06:37:10.761Z,47.08
2023-02-04T06:38:10.755Z,46.98
2023-02-04T06:39:10.799Z,47.08
2023-02-04T06:40:10.756Z,46.98
2023-02-04T06:41:10.744Z,47.08
2023-02-04T06:42:10.779Z,46.98
2023-02-04T06:43:09.954Z,46.88
2023-02-04T06:44:10.792Z,47.08
2023-02-04T06:45:10.755Z,46.98
2023-02-04T06:46:10.902Z,47.17
2023-02-04T06:47:10.769Z,46.78
2023-02-04T06:48:10.799Z,46.88
2023-02-04T06:49:10.758Z,46.98
2023-02-04T06:50:09.931Z,46.98
2023-02-04T06:51:08.917Z,46.98
2023-02-04T06:52:08.922Z,47.08
2023-02-04T06:53:10.764Z,47.08
2023-02-04T06:54:08.909Z,46.98
2023-02-04T06:55:08.916Z,47.08
2023-02-04T06:56:08.920Z,46.98
2023-02-04T06:57:10.774Z,46.59
2023-02-04T06:58:08.915Z,46.59
2023-02-04T06:59:08.885Z,46.50
2023-02-04T07:00:08.884Z,46.78
2023-02-04T07:01:10.831Z,46.78
2023-02-04T07:02:08.920Z,46.88
2023-02-04T07:03:08.884Z,46.59
2023-02-04T07:04:08.889Z,46.88
2023-02-04T07:05:08.848Z,46.69
2023-02-04T07:06:10.807Z,46.88
2023-02-04T07:07:08.882Z,46.78
2023-02-04T07:08:10.770Z,46.69
2023-02-04T07:09:10.790Z,46.69
2023-02-04T07:10:08.840Z,46.50
2023-02-04T07:12:08.835Z,46.78
2023-02-04T07:13:11.771Z,46.59
2023-02-04T07:14:08.828Z,46.59
2023-02-04T07:15:10.799Z,46.50
2023-02-04T07:16:10.402Z,46.69
2023-02-04T07:17:10.789Z,46.59
2023-02-04T07:18:10.780Z,46.59
2023-02-04T07:19:08.807Z,46.40
2023-02-04T07:20:09.800Z,46.50
2023-02-04T07:21:10.300Z,46.40
2023-02-04T07:22:08.905Z,46.69
2023-02-04T07:23:08.794Z,46.50
2023-02-04T07:24:08.769Z,46.78
2023-02-04T07:25:08.763Z,46.59
2023-02-04T07:26:10.310Z,46.69
2023-02-04T07:27:08.770Z,46.69
2023-02-04T07:28:08.862Z,46.59
2023-02-04T07:29:17.320Z,46.78
2023-02-04T07:30:08.749Z,46.78
2023-02-04T07:31:10.413Z,46.50
2023-02-04T07:32:08.773Z,46.50
2023-02-04T07:33:08.732Z,46.40
2023-02-04T07:34:08.728Z,46.78
2023-02-04T07:35:08.721Z,46.50
2023-02-04T07:36:10.344Z,46.11
2023-02-04T07:37:10.322Z,46.59
2023-02-04T07:38:10.319Z,46.21
2023-02-04T07:39:10.288Z,46.40
2023-02-04T07:40:10.297Z,46.40
2023-02-04T07:41:10.313Z,46.40
2023-02-04T07:42:10.303Z,46.40
2023-02-04T07:43:10.317Z,46.40
2023-02-04T07:44:10.329Z,46.21
2023-02-04T07:45:10.306Z,46.40
2023-02-04T07:46:10.409Z,46.11
2023-02-04T07:47:10.381Z,46.31
2023-02-04T07:48:10.306Z,46.31
2023-02-04T07:49:10.302Z,46.01
2023-02-04T07:50:10.358Z,46.01
2023-02-04T07:51:10.303Z,46.21
2023-02-04T07:52:10.298Z,46.31
2023-02-04T07:53:10.311Z,46.11
2023-02-04T07:54:10.317Z,46.11
2023-02-04T07:55:10.308Z,46.59
2023-02-04T07:56:08.641Z,46.31
2023-02-04T07:57:10.323Z,46.01
2023-02-04T07:58:08.621Z,46.01
2023-02-04T07:59:08.649Z,46.11
2023-02-04T08:00:08.601Z,46.40
2023-02-04T08:01:08.600Z,46.11
2023-02-04T08:02:10.349Z,45.94
2023-02-04T08:03:08.676Z,46.50
2023-02-04T08:04:10.315Z,45.75
2023-02-04T08:05:08.573Z,46.42
2023-02-04T08:06:08.591Z,46.40
2023-02-04T08:07:08.574Z,46.33
2023-02-04T08:08:10.335Z,46.23
2023-02-04T08:09:10.323Z,46.52
2023-02-04T08:10:10.332Z,46.42
2023-02-04T08:11:10.340Z,46.33
2023-02-04T08:12:10.323Z,46.33
2023-02-04T08:13:08.561Z,46.33
2023-02-04T08:14:10.345Z,46.23
2023-02-04T08:15:10.437Z,46.33
2023-02-04T08:16:11.939Z,46.33
2023-02-04T08:17:10.350Z,46.23
2023-02-04T08:18:10.318Z,46.04
2023-02-04T08:19:10.352Z,46.04
2023-02-04T08:20:10.336Z,46.23
2023-02-04T08:21:10.316Z,46.33
2023-02-04T08:22:10.320Z,46.33
2023-02-04T08:23:10.317Z,46.42
2023-02-04T08:24:10.324Z,45.84
2023-02-04T08:25:10.333Z,45.84
2023-02-04T08:26:10.328Z,46.04
2023-02-04T08:27:10.325Z,45.94
2023-02-04T08:28:10.353Z,45.65
2023-02-04T08:29:10.334Z,45.56
2023-02-04T08:30:10.346Z,45.48
2023-02-04T08:31:10.529Z,45.68
2023-02-04T08:32:08.581Z,45.58
2023-02-04T08:33:08.488Z,45.68
2023-02-04T08:34:08.460Z,45.48
2023-02-04T08:35:10.348Z,46.15
2023-02-04T08:36:08.446Z,46.15
2023-02-04T08:37:08.452Z,46.35
2023-02-04T08:38:10.346Z,45.97
2023-02-04T08:39:08.433Z,46.15
2023-02-04T08:40:09.848Z,45.20
2023-02-04T08:41:08.441Z,45.68
2023-02-04T08:42:10.332Z,45.68
2023-02-04T08:43:08.424Z,45.77
2023-02-04T08:44:10.319Z,45.70
2023-02-04T08:45:10.359Z,45.70
2023-02-04T08:46:08.456Z,45.70
2023-02-04T08:47:10.358Z,45.60
2023-02-04T08:48:10.389Z,45.60
2023-02-04T08:49:10.372Z,45.60
2023-02-04T08:50:10.359Z,45.60
2023-02-04T08:51:10.383Z,45.60
2023-02-04T08:52:10.351Z,45.60
2023-02-04T08:53:10.373Z,45.51
2023-02-04T08:54:08.435Z,45.41
2023-02-04T08:55:10.371Z,45.60
2023-02-04T08:56:10.467Z,45.60
2023-02-04T08:57:10.370Z,45.60
2023-02-04T08:58:10.373Z,45.51
2023-02-04T08:59:10.395Z,45.41
2023-02-04T09:00:10.364Z,45.41
2023-02-04T09:01:10.412Z,45.41
2023-02-04T09:02:09.959Z,45.41
2023-02-04T09:03:09.915Z,45.51
2023-02-04T09:04:09.872Z,45.03
2023-02-04T09:05:09.886Z,45.41
2023-02-04T09:06:09.910Z,45.03
2023-02-04T09:07:09.892Z,45.51
2023-02-04T09:08:08.360Z,45.60
2023-02-04T09:09:08.364Z,45.41
2023-02-04T09:10:09.886Z,45.12
2023-02-04T09:11:09.920Z,45.41
2023-02-04T09:12:09.937Z,45.31
2023-02-04T09:13:09.886Z,45.51
2023-02-04T09:14:09.884Z,45.41
2023-02-04T09:15:09.923Z,45.53
2023-02-04T09:16:09.906Z,45.60
2023-02-04T09:17:09.903Z,45.21
2023-02-04T09:18:09.963Z,45.43
2023-02-04T09:19:09.918Z,45.62
2023-02-04T09:20:09.898Z,45.41
2023-02-04T09:21:09.957Z,45.34
2023-02-04T09:22:09.905Z,45.43
2023-02-04T09:23:09.916Z,45.43
2023-02-04T09:24:09.909Z,45.24
2023-02-04T09:25:09.904Z,45.24
2023-02-04T09:26:09.900Z,45.43
2023-02-04T09:27:09.947Z,45.43
2023-02-04T09:28:10.094Z,44.95
2023-02-04T09:29:08.324Z,45.14
2023-02-04T09:30:08.319Z,45.43
2023-02-04T09:31:08.333Z,45.43
2023-02-04T09:32:08.334Z,45.43
2023-02-04T09:33:09.933Z,45.43
2023-02-04T09:34:09.923Z,45.43
2023-02-04T09:35:08.322Z,45.43
2023-02-04T09:36:09.935Z,45.53
2023-02-04T09:37:08.303Z,45.53
2023-02-04T09:38:09.970Z,45.53
2023-02-04T09:39:08.299Z,45.43
2023-02-04T09:40:08.282Z,45.14
2023-02-04T09:41:09.931Z,45.24
2023-02-04T09:42:08.304Z,45.14
2023-02-04T09:43:09.935Z,45.14
2023-02-04T09:44:09.917Z,44.85
2023-02-04T09:45:09.955Z,45.17
2023-02-04T09:46:09.946Z,45.36
2023-02-04T09:47:09.933Z,45.26
2023-02-04T09:48:10.349Z,44.87
2023-02-04T09:49:09.933Z,45.55
2023-02-04T09:50:09.951Z,45.36
2023-02-04T09:51:09.965Z,45.17
2023-02-04T09:52:09.956Z,45.26
2023-02-04T09:53:10.943Z,44.68
2023-02-04T09:54:09.987Z,45.36
2023-02-04T09:55:09.954Z,45.36
2023-02-04T09:56:09.924Z,45.26
2023-02-04T09:57:08.232Z,45.28
2023-02-04T09:58:09.956Z,44.60
2023-02-04T09:59:08.233Z,45.38
2023-02-04T10:00:09.886Z,44.60
2023-02-04T10:01:09.973Z,44.60
2023-02-04T10:02:08.204Z,45.28
2023-02-04T10:13:31.985Z,44.70
2023-02-04T10:14:30.096Z,44.32
2023-02-04T10:15:30.119Z,44.70
2023-02-04T10:16:32.027Z,44.80
2023-02-04T10:17:31.959Z,44.60
2023-02-04T10:18:31.947Z,44.70
2023-02-04T10:19:30.079Z,44.42
2023-02-04T10:20:32.233Z,44.32
2023-02-04T10:21:30.082Z,44.60
2023-02-04T10:22:31.934Z,44.22
2023-02-04T10:23:31.962Z,44.70
2023-02-04T10:24:31.936Z,44.70
2023-02-04T10:25:31.949Z,44.70
2023-02-04T10:26:31.967Z,44.73
2023-02-04T10:27:31.942Z,44.43
2023-02-04T10:28:31.972Z,44.73
2023-02-04T10:29:31.988Z,44.34
2023-02-04T10:30:32.330Z,44.73
2023-02-04T10:31:32.125Z,44.34
2023-02-04T10:32:31.970Z,44.82
2023-02-04T10:33:31.978Z,44.82
2023-02-04T10:34:31.951Z,44.73
2023-02-04T10:35:31.974Z,44.73
2023-02-04T10:36:31.982Z,44.73
2023-02-04T10:37:31.965Z,44.43
2023-02-04T10:38:31.955Z,44.36
2023-02-04T10:39:32.012Z,44.65
2023-02-04T10:40:31.538Z,44.73
2023-02-04T10:41:30.040Z,44.75
2023-02-04T10:42:30.020Z,44.65
2023-02-04T10:43:30.042Z,44.75
2023-02-04T10:44:32.000Z,44.75
2023-02-04T10:45:31.986Z,44.84
2023-02-04T10:46:30.056Z,44.65
2023-02-04T10:47:30.030Z,44.65
2023-02-04T10:48:30.127Z,44.65
2023-02-04T10:49:32.023Z,44.84
2023-02-04T10:50:32.315Z,44.17
2023-02-04T10:51:30.017Z,44.65
2023-02-04T10:52:31.983Z,44.56
2023-02-04T10:53:30.061Z,44.36
2023-02-04T10:54:31.984Z,44.56
2023-02-04T10:55:30.040Z,44.56
2023-02-04T10:56:31.982Z,44.46
2023-02-04T10:57:31.981Z,44.65
2023-02-04T10:58:29.996Z,44.56
2023-02-04T10:59:31.974Z,44.36
2023-02-04T11:00:31.857Z,44.17
2023-02-04T11:01:31.109Z,44.56
2023-02-04T11:02:31.507Z,44.56
2023-02-04T11:03:30.053Z,44.46
2023-02-04T11:04:29.994Z,44.46
2023-02-04T11:05:31.514Z,44.38
2023-02-04T11:06:31.496Z,44.36
2023-02-04T11:07:29.988Z,44.36
2023-02-04T11:08:29.981Z,44.57
2023-02-04T11:09:29.975Z,44.36
2023-02-04T11:10:31.832Z,44.19
2023-02-04T11:11:29.979Z,44.38
2023-02-04T11:12:31.508Z,43.88
2023-02-04T11:13:30.077Z,44.29
2023-02-04T11:14:30.009Z,44.38
2023-02-04T11:15:31.541Z,44.38
2023-02-04T11:16:29.982Z,44.26
2023-02-04T11:17:31.530Z,44.29
2023-02-04T11:18:31.525Z,44.09
2023-02-04T11:19:31.499Z,44.48
2023-02-04T11:20:31.809Z,44.09
2023-02-04T11:21:31.497Z,44.17
2023-02-04T11:22:31.516Z,44.07
2023-02-04T11:23:31.507Z,44.19
2023-02-04T11:24:31.505Z,44.09
2023-02-04T11:25:31.889Z,44.09
2023-02-04T11:26:31.507Z,44.19
2023-02-04T11:27:31.516Z,44.19
2023-02-04T11:28:31.548Z,44.29
2023-02-04T11:29:31.518Z,44.19
2023-02-04T11:30:31.609Z,44.19
2023-02-04T11:31:31.651Z,44.38
2023-02-04T11:32:31.571Z,44.07
2023-02-04T11:33:31.519Z,44.29
2023-02-04T11:34:31.529Z,44.29
2023-02-04T11:35:31.936Z,44.17
2023-02-04T11:36:31.029Z,44.29
2023-02-04T11:37:29.949Z,44.38
2023-02-04T11:38:29.967Z,44.19
2023-02-04T11:39:29.935Z,43.61
2023-02-04T11:40:31.542Z,44.26
2023-02-04T11:41:29.934Z,44.26
2023-02-04T11:42:29.946Z,44.19
2023-02-04T11:43:29.928Z,43.80
2023-02-04T11:44:29.950Z,44.17
2023-02-04T11:45:31.833Z,44.29
2023-02-04T11:46:30.011Z,44.09
2023-02-04T11:47:29.931Z,43.90
2023-02-04T11:48:29.915Z,43.90
2023-02-04T11:49:31.529Z,43.71
2023-02-04T11:50:31.540Z,43.90
2023-02-04T11:51:31.528Z,43.80
2023-02-04T11:52:31.528Z,43.99
2023-02-04T11:53:31.551Z,43.80
2023-02-04T11:54:31.523Z,43.80
2023-02-04T11:55:31.896Z,43.90
2023-02-04T11:56:31.546Z,43.71
2023-02-04T11:57:31.559Z,43.90
2023-02-04T11:58:31.592Z,43.80
2023-02-04T11:59:31.538Z,43.80
2023-02-04T12:00:31.601Z,43.90
2023-02-04T12:01:31.544Z,43.80
2023-02-04T12:02:31.583Z,43.90
2023-02-04T12:03:31.584Z,43.80
2023-02-04T12:04:31.556Z,43.71
2023-02-04T12:05:31.883Z,43.80
2023-02-04T12:06:31.536Z,43.90
2023-02-04T12:07:32.496Z,43.92
2023-02-04T12:08:31.571Z,43.90
2023-02-04T12:09:31.553Z,43.92
2023-02-04T12:10:31.558Z,43.82
2023-02-04T12:11:31.545Z,43.73
2023-02-04T12:12:31.551Z,44.02
2023-02-04T12:13:31.569Z,43.63
2023-02-04T12:14:29.889Z,43.73
2023-02-04T12:15:29.973Z,43.73
2023-02-04T12:16:31.565Z,43.24
2023-02-04T12:17:29.898Z,43.65
2023-02-04T12:18:29.932Z,43.55
2023-02-04T12:19:29.932Z,43.46
2023-02-04T12:20:31.064Z,43.37
2023-02-04T12:21:29.912Z,43.46
2023-02-04T12:22:31.617Z,43.46
2023-02-04T12:23:29.900Z,43.58
2023-02-04T12:24:31.565Z,43.38
2023-02-04T12:25:31.294Z,43.58
2023-02-04T12:26:29.896Z,43.68
2023-02-04T12:27:31.581Z,43.48
2023-02-04T12:28:29.882Z,43.19
2023-02-04T12:29:31.585Z,43.12
2023-02-04T12:30:30.893Z,43.31
2023-02-04T12:31:31.691Z,43.31
2023-02-04T12:32:29.901Z,43.12
2023-02-04T12:33:31.590Z,43.41
2023-02-04T12:34:31.564Z,42.94
2023-02-04T12:35:31.884Z,42.94
2023-02-04T12:36:31.582Z,42.94
2023-02-04T12:37:31.576Z,42.75
2023-02-04T12:38:31.616Z,42.65
2023-02-04T12:39:31.578Z,42.67
2023-02-04T12:40:31.572Z,42.67
2023-02-04T12:41:29.873Z,42.67
2023-02-04T12:42:31.576Z,42.77
2023-02-04T12:43:31.610Z,42.67
2023-02-04T12:44:31.590Z,42.57
2023-02-04T12:45:31.304Z,42.96
2023-02-04T12:46:29.971Z,42.50
2023-02-04T12:47:31.655Z,42.50
2023-02-04T12:48:30.975Z,42.21
2023-02-04T12:49:31.093Z,42.21
2023-02-04T12:50:30.929Z,42.33
2023-02-04T12:51:30.897Z,41.94
2023-02-04T12:52:31.610Z,41.96
2023-02-04T12:53:31.597Z,41.96
2023-02-04T12:54:31.120Z,42.05
2023-02-04T12:55:31.976Z,41.96
2023-02-04T12:56:31.616Z,42.05
2023-02-04T12:57:31.594Z,42.25
2023-02-04T12:58:31.600Z,42.05
2023-02-04T12:59:31.659Z,42.05
2023-02-04T13:00:31.679Z,42.44
2023-02-04T13:01:31.600Z,42.05
2023-02-04T13:02:31.586Z,41.96
2023-02-04T13:03:31.607Z,41.59
2023-02-04T13:04:30.913Z,41.69
2023-02-04T13:05:31.938Z,41.69
2023-02-04T13:06:31.613Z,41.30
2023-02-04T13:07:31.596Z,41.39
2023-02-04T13:08:31.620Z,41.39
2023-02-04T13:09:31.633Z,41.39
2023-02-04T13:10:31.623Z,41.49
2023-02-04T13:11:31.618Z,41.30
2023-02-04T13:12:31.598Z,41.69
2023-02-04T13:13:31.604Z,41.78
2023-02-04T13:14:30.968Z,41.49
2023-02-04T13:15:31.947Z,41.59
2023-02-04T13:16:29.954Z,41.59
2023-02-04T13:17:29.932Z,41.49
2023-02-04T13:18:31.168Z,41.20
2023-02-04T13:19:29.953Z,41.20
2023-02-04T13:20:31.628Z,41.30
2023-02-04T13:21:31.155Z,41.39
2023-02-04T13:22:29.946Z,41.10
2023-02-04T13:23:31.611Z,41.30
2023-02-04T13:24:31.643Z,41.30
2023-02-04T13:25:32.048Z,41.01
2023-02-04T13:26:31.619Z,41.38
2023-02-04T13:27:31.975Z,41.28
2023-02-04T13:28:31.638Z,41.38
2023-02-04T13:29:31.633Z,41.28
2023-02-04T13:30:31.669Z,41.38
2023-02-04T13:31:31.658Z,41.28
2023-02-04T13:32:31.632Z,41.28
2023-02-04T13:33:31.625Z,41.26
2023-02-04T13:34:31.632Z,41.18
2023-02-04T13:35:31.955Z,41.26
2023-02-04T13:36:31.631Z,41.36
2023-02-04T13:37:31.664Z,41.26
2023-02-04T13:38:31.636Z,41.45
2023-02-04T13:39:31.631Z,41.36
2023-02-04T13:40:31.679Z,41.26
2023-02-04T13:41:31.669Z,41.06
2023-02-04T13:42:31.654Z,41.16
2023-02-04T13:43:32.646Z,41.14
2023-02-04T13:44:31.675Z,41.05
2023-02-04T13:45:31.671Z,41.14
2023-02-04T13:46:29.958Z,41.92
2023-02-04T13:47:32.675Z,41.33
2023-02-04T13:48:29.966Z,41.51
2023-02-04T13:49:31.671Z,41.70
2023-02-04T13:50:31.625Z,41.31
2023-02-04T13:51:29.956Z,41.51
2023-02-04T13:52:29.997Z,41.39
2023-02-04T13:53:29.971Z,41.49
2023-02-04T13:54:29.981Z,41.49
2023-02-04T13:55:30.089Z,41.58
2023-02-04T13:56:31.727Z,41.39
2023-02-04T13:57:31.187Z,41.39
2023-02-04T13:58:29.954Z,41.22
2023-02-04T13:59:29.964Z,41.22
2023-02-04T14:00:32.209Z,41.51
2023-02-04T14:01:31.676Z,41.61
2023-02-04T14:02:30.007Z,41.22
2023-02-04T14:03:31.685Z,40.95
2023-02-04T14:04:29.971Z,40.85
2023-02-04T14:05:31.670Z,41.05
2023-02-04T14:06:31.679Z,40.66
2023-02-04T14:07:30.984Z,40.75
2023-02-04T14:08:31.676Z,40.87
2023-02-04T14:09:31.669Z,40.48
2023-02-04T14:10:31.996Z,40.77
2023-02-04T14:11:31.705Z,40.48
2023-02-04T14:12:31.686Z,40.48
2023-02-04T14:13:31.677Z,40.50
2023-02-04T14:14:31.715Z,40.60
2023-02-04T14:15:31.686Z,40.79
2023-02-04T14:16:31.734Z,40.60
2023-02-04T14:17:30.975Z,40.89
2023-02-04T14:18:29.976Z,40.60
2023-02-04T14:19:31.724Z,40.21
2023-02-04T14:20:32.101Z,40.11
2023-02-04T14:21:31.710Z,40.50
2023-02-04T14:22:31.698Z,40.58
2023-02-04T14:23:31.698Z,41.06
2023-02-04T14:24:29.977Z,41.06
2023-02-04T14:25:31.688Z,41.14
2023-02-04T14:26:31.717Z,40.95
2023-02-04T14:27:31.694Z,40.95
2023-02-04T14:28:31.725Z,41.05
2023-02-04T14:29:31.721Z,41.02
2023-02-04T14:30:32.289Z,40.92
2023-02-04T14:31:31.775Z,41.61
2023-02-04T14:32:31.702Z,41.41
2023-02-04T14:33:31.724Z,41.39
2023-02-04T14:34:29.979Z,41.00
2023-02-04T14:35:31.714Z,41.20
2023-02-04T14:36:31.738Z,41.10
2023-02-04T14:37:29.976Z,41.68
2023-02-04T14:38:31.708Z,41.76
2023-02-04T14:39:31.712Z,41.47
2023-02-04T14:40:32.111Z,41.56
2023-02-04T14:41:31.723Z,40.99
2023-02-04T14:42:31.749Z,40.99
2023-02-04T14:43:31.705Z,41.08
2023-02-04T14:44:31.750Z,41.08
2023-02-04T14:45:31.710Z,41.16
2023-02-04T14:46:31.702Z,41.45
2023-02-04T14:47:31.712Z,41.55
2023-02-04T14:48:29.983Z,41.83
2023-02-04T14:49:31.225Z,41.55
2023-02-04T14:50:31.816Z,41.55
2023-02-04T14:51:29.972Z,41.91
2023-02-04T14:52:29.994Z,41.82
2023-02-04T14:53:31.723Z,41.82
2023-02-04T14:54:29.974Z,41.62
2023-02-04T14:55:29.973Z,42.20
2023-02-04T14:56:31.234Z,42.30
2023-02-04T14:57:29.958Z,42.18
2023-02-04T14:58:31.745Z,41.79
2023-02-04T14:59:31.721Z,41.89
2023-02-04T15:00:32.092Z,42.18
2023-02-04T15:01:31.884Z,42.08
2023-02-04T15:02:31.797Z,41.89
2023-02-04T15:03:31.735Z,41.79
2023-02-04T15:04:31.719Z,41.97
2023-02-04T15:05:31.795Z,41.77
2023-02-04T15:06:31.768Z,41.77
2023-02-04T15:07:31.729Z,42.07
2023-02-04T15:08:31.743Z,41.87
2023-02-04T15:09:31.745Z,42.07
2023-02-04T15:10:32.182Z,41.97
2023-02-04T15:11:31.810Z,42.04
2023-02-04T15:12:31.758Z,42.04
2023-02-04T15:13:31.757Z,42.14
2023-02-04T15:14:31.759Z,42.14
2023-02-04T15:15:31.745Z,42.24
2023-02-04T15:16:31.823Z,42.21
2023-02-04T15:17:31.764Z,42.24
2023-02-04T15:18:31.740Z,42.12
2023-02-04T15:19:31.743Z,42.31
2023-02-04T15:20:32.188Z,42.21
2023-02-04T15:21:31.777Z,42.21
2023-02-04T15:22:31.043Z,42.21
2023-02-04T15:23:31.751Z,42.41
2023-02-04T15:24:31.751Z,42.41
2023-02-04T15:25:31.761Z,42.60
2023-02-04T15:26:31.756Z,42.58
2023-02-04T15:27:31.745Z,42.68
2023-02-04T15:28:29.932Z,42.68
2023-02-04T15:29:31.745Z,42.58
2023-02-04T15:30:31.687Z,42.39
2023-02-04T15:31:31.072Z,42.48
2023-02-04T15:32:31.775Z,42.58
2023-02-04T15:33:30.914Z,42.68
2023-02-04T15:34:29.894Z,42.46
2023-02-04T15:35:31.766Z,42.56
2023-02-04T15:36:29.884Z,42.46
2023-02-04T15:37:31.766Z,42.56
2023-02-04T15:38:29.905Z,42.56
2023-02-04T15:39:31.770Z,42.66
2023-02-04T15:40:30.040Z,42.56
2023-02-04T15:41:31.753Z,42.56
2023-02-04T15:42:31.790Z,42.66
2023-02-04T15:43:31.783Z,42.75
2023-02-04T15:44:31.805Z,42.56
2023-02-04T15:45:31.765Z,42.75
2023-02-04T15:46:31.846Z,42.75
2023-02-04T15:47:31.748Z,42.85
2023-02-04T15:48:31.784Z,42.83
2023-02-04T15:49:31.806Z,42.85
2023-02-04T15:50:32.148Z,42.83
2023-02-04T15:51:31.819Z,42.83
2023-02-04T15:52:31.757Z,43.12
2023-02-04T15:53:31.784Z,43.02
2023-02-04T15:54:29.851Z,43.12
2023-02-04T15:55:31.781Z,42.93
2023-02-04T15:56:30.834Z,42.63
2023-02-04T15:57:29.821Z,42.73
2023-02-04T15:58:31.789Z,42.73
2023-02-04T15:59:30.843Z,43.02
2023-02-04T16:00:32.188Z,43.02
2023-02-04T16:12:42.620Z,42.90
2023-02-04T16:13:42.613Z,42.80
2023-02-04T16:14:42.573Z,42.90
2023-02-04T16:15:42.628Z,43.00
2023-02-04T16:16:42.571Z,42.71
2023-02-04T16:17:42.579Z,43.00
2023-02-04T16:18:42.598Z,42.90
2023-02-04T16:19:42.581Z,42.88
2023-02-04T16:20:42.609Z,42.88
2023-02-04T16:21:42.582Z,43.07
2023-02-04T16:22:42.591Z,43.07
2023-02-04T16:23:43.590Z,42.79
2023-02-04T16:24:42.606Z,43.07
2023-02-04T16:25:42.617Z,43.07
2023-02-04T16:26:40.686Z,43.37
2023-02-04T16:27:40.733Z,43.55
2023-02-04T16:28:40.690Z,43.27
2023-02-04T16:29:42.607Z,43.17
2023-02-04T16:30:40.701Z,43.27
2023-02-04T16:31:40.740Z,43.07
2023-02-04T16:32:40.670Z,43.37
2023-02-04T16:33:42.116Z,43.65
2023-02-04T16:34:40.648Z,43.27
2023-02-04T16:35:41.670Z,43.37
2023-02-04T16:36:42.633Z,43.37
2023-02-04T16:37:41.642Z,43.27
2023-02-04T16:38:40.632Z,43.37
2023-02-04T16:39:42.588Z,43.27
2023-02-04T16:40:40.635Z,43.27
2023-02-04T16:41:42.609Z,43.37
2023-02-04T16:42:40.622Z,43.55
2023-02-04T16:43:43.124Z,43.54
2023-02-04T16:44:40.631Z,43.37
2023-02-04T16:45:40.604Z,43.34
2023-02-04T16:46:40.664Z,43.65
2023-02-04T16:47:42.113Z,43.27
2023-02-04T16:48:42.134Z,43.34
2023-02-04T16:49:42.114Z,43.34
2023-02-04T16:50:42.102Z,43.73
2023-02-04T16:51:42.114Z,43.44
2023-02-04T16:52:42.142Z,43.44
2023-02-04T16:53:42.133Z,43.54
2023-02-04T16:54:42.129Z,43.54
2023-02-04T16:55:42.116Z,43.54
2023-02-04T16:56:42.140Z,43.15
2023-02-04T16:57:42.110Z,43.15
2023-02-04T16:58:42.124Z,43.34
2023-02-04T16:59:40.579Z,43.63
2023-02-04T17:00:42.169Z,43.44
2023-02-04T17:01:42.187Z,43.34
2023-02-04T17:02:40.580Z,43.54
2023-02-04T17:03:40.589Z,43.44
2023-02-04T17:04:42.137Z,43.63
2023-02-04T17:05:42.169Z,43.44
2023-02-04T17:06:42.132Z,43.73
2023-02-04T17:07:42.108Z,43.63
2023-02-04T17:08:42.122Z,43.24
2023-02-04T17:09:40.509Z,43.63
2023-02-04T17:10:42.125Z,44.02
2023-02-04T17:11:42.186Z,43.34
2023-02-04T17:12:40.518Z,44.02
2023-02-04T17:13:42.183Z,43.73